Time;durP1;ratioP1;P1;durP2;ratioP2;P2;SDS_P1;SDS_P2;PMS_P1;PMS_P2;Temp;Humidity;BMP_temperature;BMP_pressure;BME280_temperature;BME280_humidity;BME280_pressure;Samples;Min_cycle;Max_cycle;Signal;HPM_P1;HPM_P2
2022/09/19 00:01:35;;;;;;;5.30;1.07;;;;;;;;;;4927521;29;20685;-69
2022/09/19 00:04:04;;;;;;;7.50;1.70;;;;;;;;;;4941031;28;20237;-69
2022/09/19 00:06:30;;;;;;;5.33;1.53;;;;;;;;;;4938002;29;20209;-69
2022/09/19 00:08:57;;;;;;;4.90;1.23;;;;;;;;;;4928380;29;20693;-69
2022/09/19 00:11:22;;;;;;;4.97;1.40;;;;;;;;;;4933478;29;20181;-69
2022/09/19 00:13:49;;;;;;;7.03;1.70;;;;;;;;;;4927543;29;20185;-69
2022/09/19 00:16:18;;;;;;;5.77;1.03;;;;;;;;;;4931172;28;20220;-69
2022/09/19 00:18:44;;;;;;;9.10;1.50;;;;;;;;;;4943438;28;20201;-69
2022/09/19 00:21:09;;;;;;;9.23;1.20;;;;;;;;;;4932270;29;20205;-69
2022/09/19 00:26:20;;;;;;;3.10;0.80;;;;;;;;;;4928843;28;20240;-69
2022/09/19 00:28:45;;;;;;;3.17;1.33;;;;;;;;;;4944482;29;20213;-69
2022/09/19 00:31:18;;;;;;;5.10;1.47;;;;;;;;;;4931956;29;20178;-69
2022/09/19 00:33:44;;;;;;;6.80;1.40;;;;;;;;;;4939366;28;20189;-69
2022/09/19 00:36:10;;;;;;;5.97;1.43;;;;;;;;;;4925843;29;20204;-70
2022/09/19 00:38:35;;;;;;;3.57;1.03;;;;;;;;;;4932702;29;20197;-69
2022/09/19 00:41:00;;;;;;;7.37;2.23;;;;;;;;;;4943598;28;20189;-69
2022/09/19 00:43:42;;;;;;;6.57;2.70;;;;;;;;;;4942090;29;20209;-70
2022/09/19 00:46:07;;;;;;;4.03;1.00;;;;;;;;;;4941388;28;20285;-69
2022/09/19 00:48:33;;;;;;;3.93;1.27;;;;;;;;;;4941548;28;20290;-70
2022/09/19 00:51:00;;;;;;;4.73;1.03;;;;;;;;;;4930034;29;20193;-69
2022/09/19 00:53:26;;;;;;;9.07;1.10;;;;;;;;;;4937487;28;20178;-69
2022/09/19 00:55:53;;;;;;;3.10;1.60;;;;;;;;;;4938716;28;20198;-69
2022/09/19 00:58:22;;;;;;;8.40;1.93;;;;;;;;;;4935296;29;20251;-69
2022/09/19 01:00:48;;;;;;;10.00;2.13;;;;;;;;;;4934329;29;20181;-69
2022/09/19 01:03:13;;;;;;;2.43;0.90;;;;;;;;;;4934329;28;20178;-69
2022/09/19 01:05:49;;;;;;;3.03;0.90;;;;;;;;;;4936152;29;20201;-69
2022/09/19 01:08:25;;;;;;;4.90;1.30;;;;;;;;;;4929749;29;20205;-69
2022/09/19 01:11:02;;;;;;;8.07;1.70;;;;;;;;;;4934726;29;20176;-69
2022/09/19 01:13:29;;;;;;;4.13;1.00;;;;;;;;;;4935391;29;20651;-69
2022/09/19 01:16:01;;;;;;;4.10;1.30;;;;;;;;;;4931887;29;20243;-69
2022/09/19 01:18:28;;;;;;;3.60;1.10;;;;;;;;;;4937334;29;20210;-69
2022/09/19 01:21:37;;;;;;;10.20;3.13;;;;;;;;;;4932089;29;20189;-69
2022/09/19 01:24:07;;;;;;;2.27;0.90;;;;;;;;;;4927899;29;20205;-68
2022/09/19 01:26:38;;;;;;;7.20;1.30;;;;;;;;;;4929914;29;20206;-69
2022/09/19 01:29:15;;;;;;;6.03;1.20;;;;;;;;;;4939514;29;20210;-69
2022/09/19 01:31:43;;;;;;;4.70;1.10;;;;;;;;;;4944377;29;20268;-69
2022/09/19 01:34:24;;;;;;;5.67;1.60;;;;;;;;;;4935971;28;20189;-69
2022/09/19 01:37:12;;;;;;;6.47;1.20;;;;;;;;;;4925835;29;20527;-70
2022/09/19 01:39:39;;;;;;;4.90;1.47;;;;;;;;;;4933462;29;20193;-69
2022/09/19 01:42:04;;;;;;;6.07;1.87;;;;;;;;;;4927217;29;20340;-69
2022/09/19 01:44:30;;;;;;;4.03;1.00;;;;;;;;;;4942513;29;20726;-69
2022/09/19 01:47:14;;;;;;;2.73;1.00;;;;;;;;;;4934200;29;20210;-69
2022/09/19 01:49:54;;;;;;;3.93;1.20;;;;;;;;;;4937082;29;20184;-69
2022/09/19 01:52:47;;;;;;;7.03;1.80;;;;;;;;;;4931864;29;20178;-69
2022/09/19 01:55:19;;;;;;;6.03;1.30;;;;;;;;;;4933993;29;20185;-69
2022/09/19 01:57:47;;;;;;;6.27;1.43;;;;;;;;;;4932346;29;20205;-69
2022/09/19 02:00:18;;;;;;;6.50;1.80;;;;;;;;;;4936918;29;20194;-69
2022/09/19 02:02:43;;;;;;;4.37;1.30;;;;;;;;;;4929229;29;20223;-69
2022/09/19 02:05:14;;;;;;;6.07;1.30;;;;;;;;;;4926789;29;20233;-69
2022/09/19 02:07:55;;;;;;;7.13;1.60;;;;;;;;;;4949561;28;20193;-69
2022/09/19 02:10:23;;;;;;;2.87;1.10;;;;;;;;;;4927227;29;20651;-69
2022/09/19 02:12:52;;;;;;;4.03;1.20;;;;;;;;;;4942914;29;20669;-69
2022/09/19 02:15:19;;;;;;;5.90;1.30;;;;;;;;;;4937824;29;20182;-69
2022/09/19 02:17:50;;;;;;;2.80;1.10;;;;;;;;;;4935028;29;20292;-69
2022/09/19 02:20:24;;;;;;;5.57;1.30;;;;;;;;;;4936318;29;20180;-69
2022/09/19 02:22:52;;;;;;;4.87;1.40;;;;;;;;;;4940753;29;20540;-69
2022/09/19 02:25:20;;;;;;;3.63;1.30;;;;;;;;;;4940330;29;20205;-69
2022/09/19 02:27:50;;;;;;;6.93;1.43;;;;;;;;;;4941402;29;20237;-69
2022/09/19 02:30:18;;;;;;;3.87;1.13;;;;;;;;;;4948039;28;20647;-69
2022/09/19 02:32:49;;;;;;;3.63;1.50;;;;;;;;;;4942153;28;20178;-69
2022/09/19 02:35:16;;;;;;;3.80;1.20;;;;;;;;;;4932864;29;20382;-69
2022/09/19 02:37:46;;;;;;;2.60;1.13;;;;;;;;;;4944396;29;20211;-69
2022/09/19 02:40:28;;;;;;;5.33;1.53;;;;;;;;;;4943481;28;20726;-69
2022/09/19 02:43:22;;;;;;;5.67;1.80;;;;;;;;;;4949318;29;20192;-69
2022/09/19 02:45:53;;;;;;;4.17;1.23;;;;;;;;;;4884982;29;20246;-69
2022/09/19 02:48:35;;;;;;;10.23;1.30;;;;;;;;;;4936415;29;20253;-69
2022/09/19 02:51:06;;;;;;;6.50;1.63;;;;;;;;;;4931860;29;20213;-69
2022/09/19 02:53:36;;;;;;;5.63;1.43;;;;;;;;;;4938295;29;20184;-70
2022/09/19 02:56:02;;;;;;;5.70;1.30;;;;;;;;;;4934078;29;20201;-69
2022/09/19 02:58:30;;;;;;;3.67;1.80;;;;;;;;;;4935922;29;20495;-70
2022/09/19 03:00:59;;;;;;;9.67;2.50;;;;;;;;;;4936077;29;20236;-69
2022/09/19 03:06:15;;;;;;;5.83;1.30;;;;;;;;;;4934754;28;20205;-69
2022/09/19 03:08:41;;;;;;;3.60;1.00;;;;;;;;;;4928052;29;20191;-69
2022/09/19 03:11:08;;;;;;;3.17;1.43;;;;;;;;;;4935130;29;20190;-69
2022/09/19 03:13:36;;;;;;;7.17;1.40;;;;;;;;;;4932527;29;20186;-69
2022/09/19 03:18:31;;;;;;;7.77;2.27;;;;;;;;;;4976139;28;20223;-73
2022/09/19 03:21:01;;;;;;;6.90;1.77;;;;;;;;;;4974469;28;20642;-73
2022/09/19 03:23:29;;;;;;;4.97;1.70;;;;;;;;;;4978520;28;20231;-72
2022/09/19 03:25:54;;;;;;;13.83;3.03;;;;;;;;;;4973122;28;20184;-73
2022/09/19 03:28:21;;;;;;;6.40;1.40;;;;;;;;;;4971679;28;20251;-72
2022/09/19 03:30:46;;;;;;;5.13;1.50;;;;;;;;;;4972529;28;20172;-73
2022/09/19 03:33:16;;;;;;;4.50;1.23;;;;;;;;;;4972823;28;20202;-73
2022/09/19 03:35:42;;;;;;;7.23;1.87;;;;;;;;;;4972039;28;20188;-73
2022/09/19 03:38:07;;;;;;;8.17;1.57;;;;;;;;;;4972184;28;20680;-72
2022/09/19 03:40:33;;;;;;;12.30;1.70;;;;;;;;;;4972593;28;20187;-73
2022/09/19 03:42:58;;;;;;;12.33;2.73;;;;;;;;;;4970858;28;20188;-72
2022/09/19 03:45:24;;;;;;;8.03;1.40;;;;;;;;;;4987678;28;20254;-72
2022/09/19 03:47:49;;;;;;;5.53;1.73;;;;;;;;;;4974214;28;20228;-73
2022/09/19 03:50:14;;;;;;;6.60;1.67;;;;;;;;;;4971691;28;20181;-72
2022/09/19 03:52:39;;;;;;;13.47;3.27;;;;;;;;;;4972506;28;20180;-73
2022/09/19 03:55:05;;;;;;;3.73;1.50;;;;;;;;;;4971721;28;20180;-73
2022/09/19 03:57:30;;;;;;;3.00;1.00;;;;;;;;;;4969974;28;20203;-72
2022/09/19 03:59:55;;;;;;;4.03;1.40;;;;;;;;;;4978431;28;20641;-72
2022/09/19 04:02:21;;;;;;;7.63;1.93;;;;;;;;;;4974227;28;20180;-73
2022/09/19 04:04:47;;;;;;;7.47;2.63;;;;;;;;;;4978637;28;20307;-73
2022/09/19 04:07:13;;;;;;;6.73;2.40;;;;;;;;;;4973615;28;20216;-73
2022/09/19 04:09:38;;;;;;;5.50;2.60;;;;;;;;;;4967801;28;20556;-74
2022/09/19 04:12:03;;;;;;;4.50;2.07;;;;;;;;;;4969431;28;20274;-72
2022/09/19 04:14:29;;;;;;;5.40;1.90;;;;;;;;;;4972581;28;20188;-72
2022/09/19 04:16:55;;;;;;;8.13;2.63;;;;;;;;;;4972146;28;20220;-73
2022/09/19 04:19:21;;;;;;;5.23;2.07;;;;;;;;;;4972193;28;20215;-72
2022/09/19 04:21:46;;;;;;;4.93;1.70;;;;;;;;;;4971782;28;20212;-73
2022/09/19 04:24:12;;;;;;;6.30;2.40;;;;;;;;;;4972213;28;20204;-72
2022/09/19 04:26:38;;;;;;;6.27;1.73;;;;;;;;;;4971863;28;20212;-73
2022/09/19 04:29:03;;;;;;;16.37;6.00;;;;;;;;;;4984546;28;20175;-73
2022/09/19 04:31:35;;;;;;;6.37;3.47;;;;;;;;;;4971372;28;20184;-74
2022/09/19 04:34:02;;;;;;;7.67;3.40;;;;;;;;;;4971420;28;20183;-74
2022/09/19 04:36:31;;;;;;;8.07;3.20;;;;;;;;;;4972453;28;20267;-74
2022/09/19 04:38:56;;;;;;;5.20;2.40;;;;;;;;;;4954071;28;20190;-72
2022/09/19 04:41:21;;;;;;;5.00;1.70;;;;;;;;;;4979204;28;20275;-73
2022/09/19 04:43:50;;;;;;;5.23;2.07;;;;;;;;;;4974734;28;20207;-72
2022/09/19 04:46:21;;;;;;;6.63;1.80;;;;;;;;;;4953840;28;20681;-73
2022/09/19 04:48:47;;;;;;;4.43;1.53;;;;;;;;;;4969991;28;20670;-72
2022/09/19 04:51:12;;;;;;;6.20;1.77;;;;;;;;;;4968258;28;20659;-73
2022/09/19 04:53:38;;;;;;;4.03;1.70;;;;;;;;;;4974115;28;20183;-73
2022/09/19 04:56:03;;;;;;;5.47;1.50;;;;;;;;;;4984073;28;20180;-72
2022/09/19 04:58:28;;;;;;;9.43;3.43;;;;;;;;;;4976071;28;20223;-74
2022/09/19 05:00:55;;;;;;;4.87;1.40;;;;;;;;;;4973587;28;20179;-74
2022/09/19 05:03:21;;;;;;;4.13;1.10;;;;;;;;;;4975114;28;20184;-71
2022/09/19 05:05:50;;;;;;;7.87;1.33;;;;;;;;;;4972485;28;20199;-71
2022/09/19 05:08:17;;;;;;;4.17;1.27;;;;;;;;;;4971407;28;20204;-74
2022/09/19 05:10:43;;;;;;;7.53;2.03;;;;;;;;;;4948642;28;20663;-74
2022/09/19 05:13:08;;;;;;;5.80;2.03;;;;;;;;;;4970282;28;20192;-71
2022/09/19 05:15:34;;;;;;;6.47;1.10;;;;;;;;;;4968872;28;20255;-74
2022/09/19 05:17:59;;;;;;;7.13;2.00;;;;;;;;;;4979008;28;20211;-73
2022/09/19 05:20:27;;;;;;;4.80;1.23;;;;;;;;;;4973046;28;20256;-73
2022/09/19 05:22:58;;;;;;;3.37;1.27;;;;;;;;;;4973327;28;20181;-73
2022/09/19 05:25:24;;;;;;;5.93;2.80;;;;;;;;;;4972106;28;20208;-73
2022/09/19 05:27:50;;;;;;;8.57;1.40;;;;;;;;;;4975244;28;20692;-73
2022/09/19 05:30:15;;;;;;;5.43;1.30;;;;;;;;;;4974160;28;20218;-71
2022/09/19 05:32:44;;;;;;;5.83;1.63;;;;;;;;;;4957516;28;20208;-73
2022/09/19 05:35:10;;;;;;;3.00;1.30;;;;;;;;;;4973970;28;20270;-74
2022/09/19 05:37:38;;;;;;;4.63;1.70;;;;;;;;;;4976454;28;20634;-73
2022/09/19 05:40:04;;;;;;;3.00;1.63;;;;;;;;;;4986742;28;20176;-73
2022/09/19 05:42:29;;;;;;;8.73;1.77;;;;;;;;;;4960312;28;20656;-73
2022/09/19 05:44:54;;;;;;;6.70;1.60;;;;;;;;;;4970043;28;20204;-74
2022/09/19 05:47:20;;;;;;;7.73;1.60;;;;;;;;;;4976106;28;20223;-73
2022/09/19 05:49:45;;;;;;;5.23;1.40;;;;;;;;;;4973126;28;20189;-73
2022/09/19 05:54:54;;;;;;;6.00;1.27;;;;;;;;;;4975298;28;20267;-73
2022/09/19 05:57:19;;;;;;;4.97;1.70;;;;;;;;;;4973762;28;20287;-72
2022/09/19 05:59:44;;;;;;;5.17;1.53;;;;;;;;;;4960343;28;20573;-73
2022/09/19 06:02:10;;;;;;;7.30;1.50;;;;;;;;;;4969376;28;20208;-73
2022/09/19 06:04:35;;;;;;;5.13;1.47;;;;;;;;;;4979151;28;20211;-72
2022/09/19 06:07:00;;;;;;;6.70;2.00;;;;;;;;;;4972841;28;20262;-72
2022/09/19 06:09:27;;;;;;;8.80;2.53;;;;;;;;;;4972702;28;20199;-73
2022/09/19 06:11:52;;;;;;;5.87;1.57;;;;;;;;;;4959899;28;20185;-72
2022/09/19 06:14:18;;;;;;;5.30;1.80;;;;;;;;;;4970569;28;20195;-73
2022/09/19 06:16:43;;;;;;;5.57;1.83;;;;;;;;;;4962070;28;20353;-73
2022/09/19 06:19:09;;;;;;;6.90;1.63;;;;;;;;;;4957028;28;20279;-72
2022/09/19 06:21:34;;;;;;;5.27;1.50;;;;;;;;;;4972961;28;20533;-73
2022/09/19 06:24:01;;;;;;;6.07;1.60;;;;;;;;;;4977802;28;20316;-72
2022/09/19 06:26:26;;;;;;;10.07;2.03;;;;;;;;;;4979528;28;20287;-72
2022/09/19 06:28:51;;;;;;;11.73;2.83;;;;;;;;;;4974216;28;20326;-75
2022/09/19 06:31:17;;;;;;;7.53;1.93;;;;;;;;;;4974822;28;20267;-73
2022/09/19 06:33:42;;;;;;;4.70;1.20;;;;;;;;;;4983233;28;20176;-73
2022/09/19 06:36:08;;;;;;;9.70;2.63;;;;;;;;;;4960538;28;20189;-73
2022/09/19 06:38:35;;;;;;;4.33;1.30;;;;;;;;;;4976730;28;20180;-72
2022/09/19 06:41:00;;;;;;;7.37;1.70;;;;;;;;;;4978913;28;20620;-75
2022/09/19 06:43:26;;;;;;;6.93;2.30;;;;;;;;;;4973404;28;20267;-73
2022/09/19 06:45:52;;;;;;;3.93;1.57;;;;;;;;;;4975014;28;20291;-73
2022/09/19 06:48:17;;;;;;;4.57;1.30;;;;;;;;;;4978949;28;20270;-75
2022/09/19 06:50:46;;;;;;;8.45;1.40;;;;;;;;;;4986064;28;20183;-73
2022/09/19 06:53:11;;;;;;;5.77;1.47;;;;;;;;;;4978701;28;20227;-73
2022/09/19 06:55:37;;;;;;;4.18;2.05;;;;;;;;;;4972868;28;20220;-72
2022/09/19 06:58:03;;;;;;;4.53;1.38;;;;;;;;;;4973914;28;20220;-72
2022/09/19 07:00:29;;;;;;;5.68;1.80;;;;;;;;;;4978667;28;20188;-74
2022/09/19 07:03:01;;;;;;;6.25;1.50;;;;;;;;;;4966898;28;20246;-72
2022/09/19 07:05:27;;;;;;;6.13;1.65;;;;;;;;;;4971644;28;20702;-72
2022/09/19 07:07:52;;;;;;;6.38;1.52;;;;;;;;;;4976642;28;20207;-72
2022/09/19 07:10:19;;;;;;;6.15;2.50;;;;;;;;;;4975720;28;20230;-72
2022/09/19 07:12:50;;;;;;;6.70;1.48;;;;;;;;;;4970940;28;20220;-71
2022/09/19 07:15:15;;;;;;;5.00;1.50;;;;;;;;;;4980904;28;20579;-74
2022/09/19 07:17:40;;;;;;;7.65;1.85;;;;;;;;;;4971104;28;20298;-72
2022/09/19 07:20:05;;;;;;;5.93;2.28;;;;;;;;;;4971917;28;20215;-72
2022/09/19 07:22:31;;;;;;;6.97;1.67;;;;;;;;;;4975447;28;20177;-72
2022/09/19 07:24:56;;;;;;;9.15;1.52;;;;;;;;;;4984981;28;20226;-72
2022/09/19 07:27:21;;;;;;;7.22;1.52;;;;;;;;;;4972773;28;20215;-72
2022/09/19 07:29:46;;;;;;;10.13;3.05;;;;;;;;;;4978039;28;20192;-71
2022/09/19 07:32:11;;;;;;;5.07;1.67;;;;;;;;;;4974419;28;20187;-70
2022/09/19 07:34:37;;;;;;;7.43;1.80;;;;;;;;;;4971213;28;20223;-72
2022/09/19 07:37:02;;;;;;;4.53;1.52;;;;;;;;;;4973476;28;20654;-71
2022/09/19 07:39:27;;;;;;;8.35;2.45;;;;;;;;;;4974075;28;20710;-72
2022/09/19 07:41:53;;;;;;;10.38;3.05;;;;;;;;;;4972485;28;20184;-71
2022/09/19 07:44:18;;;;;;;3.35;1.40;;;;;;;;;;4971606;28;20311;-72
2022/09/19 07:47:26;;;;;;;7.05;1.38;;;;;;;;;;4977322;28;20271;-72
2022/09/19 07:49:29;;;;;;;3.50;1.10;;;;;;;;;;4982573;28;20176;-72
2022/09/19 07:51:54;;;;;;;3.95;1.35;;;;;;;;;;4984153;28;20526;-72
2022/09/19 07:54:19;;;;;;;3.72;0.90;;;;;;;;;;4981989;28;20278;-72
2022/09/19 07:56:47;;;;;;;7.85;1.25;;;;;;;;;;4973380;28;20198;-73
2022/09/19 07:59:12;;;;;;;6.53;1.42;;;;;;;;;;4964729;28;20180;-70
2022/09/19 08:01:37;;;;;;;4.53;1.40;;;;;;;;;;4973863;28;20184;-73
2022/09/19 08:04:02;;;;;;;6.80;1.55;;;;;;;;;;4968421;28;20204;-72
2022/09/19 08:06:27;;;;;;;4.35;1.13;;;;;;;;;;4982013;28;20222;-73
2022/09/19 08:08:54;;;;;;;7.57;1.50;;;;;;;;;;4980404;28;20200;-73
2022/09/19 08:11:21;;;;;;;6.47;1.33;;;;;;;;;;4968681;28;20458;-71
2022/09/19 08:13:46;;;;;;;5.90;1.65;;;;;;;;;;4977217;28;20179;-73
2022/09/19 08:16:11;;;;;;;4.90;1.20;;;;;;;;;;4982387;28;20185;-72
2022/09/19 08:18:38;;;;;;;7.93;1.17;;;;;;;;;;4986022;28;20974;-71
2022/09/19 08:21:03;;;;;;;2.55;1.15;;;;;;;;;;4963558;28;20180;-71
2022/09/19 08:23:29;;;;;;;5.45;1.10;;;;;;;;;;4981938;28;20180;-71
2022/09/19 08:25:55;;;;;;;5.70;1.20;;;;;;;;;;4975643;28;20354;-72
2022/09/19 08:28:20;;;;;;;4.68;1.05;;;;;;;;;;4957492;28;20204;-71
2022/09/19 08:30:47;;;;;;;6.28;1.20;;;;;;;;;;4985883;28;20168;-71
2022/09/19 08:33:13;;;;;;;3.05;2.08;;;;;;;;;;4988339;28;20175;-71
2022/09/19 08:35:39;;;;;;;6.55;1.40;;;;;;;;;;4975060;28;20607;-71
2022/09/19 08:38:05;;;;;;;3.97;1.15;;;;;;;;;;4975369;28;20203;-71
2022/09/19 08:40:43;;;;;;;6.28;1.40;;;;;;;;;;4971695;28;20192;-71
2022/09/19 08:43:24;;;;;;;7.82;1.15;;;;;;;;;;4977734;28;20258;-71
2022/09/19 08:46:08;;;;;;;3.65;1.17;;;;;;;;;;4974077;28;20208;-70
2022/09/19 08:48:33;;;;;;;6.95;0.90;;;;;;;;;;4980566;28;20184;-70
2022/09/19 08:51:06;;;;;;;3.25;0.70;;;;;;;;;;4979147;28;20179;-71
2022/09/19 08:53:33;;;;;;;5.47;1.48;;;;;;;;;;4978326;28;20716;-71
2022/09/19 08:56:00;;;;;;;4.25;0.75;;;;;;;;;;4971702;28;20192;-71
2022/09/19 08:58:27;;;;;;;8.02;0.70;;;;;;;;;;4969614;28;20665;-71
2022/09/19 09:00:53;;;;;;;1.75;0.82;;;;;;;;;;4970117;28;20231;-71
2022/09/19 09:03:24;;;;;;;4.38;1.00;;;;;;;;;;4971232;28;20562;-73
2022/09/19 09:05:55;;;;;;;4.45;1.15;;;;;;;;;;4972480;28;20315;-73
2022/09/19 09:08:39;;;;;;;2.90;0.45;;;;;;;;;;4974185;28;20188;-70
2022/09/19 09:11:05;;;;;;;2.38;0.68;;;;;;;;;;4977212;28;20180;-71
2022/09/19 09:13:49;;;;;;;5.60;1.17;;;;;;;;;;4966383;28;20183;-72
2022/09/19 09:18:52;;;;;;;4.25;1.05;;;;;;;;;;4968110;28;20698;-69
2022/09/19 09:21:20;;;;;;;4.28;0.77;;;;;;;;;;4971240;28;20182;-68
2022/09/19 09:23:47;;;;;;;7.20;1.48;;;;;;;;;;4972115;28;20168;-69
2022/09/19 09:26:14;;;;;;;3.97;0.82;;;;;;;;;;4971681;28;20259;-69
2022/09/19 09:28:50;;;;;;;5.45;1.10;;;;;;;;;;4972051;28;20176;-69
2022/09/19 09:31:24;;;;;;;7.97;1.08;;;;;;;;;;4971671;28;20180;-69
2022/09/19 09:33:52;;;;;;;8.10;1.10;;;;;;;;;;4978788;28;20175;-68
2022/09/19 09:36:23;;;;;;;4.47;1.10;;;;;;;;;;4975669;28;20551;-69
2022/09/19 09:38:52;;;;;;;5.97;1.52;;;;;;;;;;4971379;28;20184;-69
2022/09/19 09:41:45;;;;;;;4.95;0.93;;;;;;;;;;4970673;28;20173;-69
2022/09/19 09:44:13;;;;;;;6.13;1.33;;;;;;;;;;4973480;28;20200;-69
2022/09/19 09:46:53;;;;;;;5.30;0.80;;;;;;;;;;4953240;28;20257;-69
2022/09/19 09:49:22;;;;;;;4.32;0.90;;;;;;;;;;4971440;28;20662;-69
2022/09/19 09:51:47;;;;;;;5.18;1.02;;;;;;;;;;4968264;28;20234;-69
2022/09/19 09:57:31;;;;;;;4.25;1.13;;;;;;;;;;4967533;28;20409;-69
2022/09/19 10:05:37;;;;;;;6.75;1.63;;;;;;;;;;4968963;28;20295;-70
2022/09/19 10:08:14;;;;;;;6.72;1.50;;;;;;;;;;4973319;28;20202;-69
2022/09/19 10:10:39;;;;;;;2.72;0.80;;;;;;;;;;4974358;28;20467;-69
2022/09/19 10:13:07;;;;;;;4.93;0.90;;;;;;;;;;4974690;28;20200;-69
2022/09/19 10:15:34;;;;;;;40.38;2.17;;;;;;;;;;4964915;28;20697;-70
2022/09/19 10:18:06;;;;;;;6.78;1.33;;;;;;;;;;4983071;28;20574;-70
2022/09/19 10:20:35;;;;;;;3.42;0.80;;;;;;;;;;4974401;28;20638;-69
2022/09/19 10:23:00;;;;;;;6.00;1.23;;;;;;;;;;4973918;28;20298;-69
2022/09/19 10:25:26;;;;;;;3.95;1.27;;;;;;;;;;4974371;28;20479;-69
2022/09/19 10:27:52;;;;;;;3.03;0.68;;;;;;;;;;4974604;28;20593;-71
2022/09/19 10:30:22;;;;;;;3.05;1.05;;;;;;;;;;4975999;28;20598;-69
2022/09/19 10:32:47;;;;;;;5.32;1.00;;;;;;;;;;4979370;28;20250;-69
2022/09/19 10:35:27;;;;;;;4.57;0.70;;;;;;;;;;4983117;28;20638;-69
2022/09/19 10:38:04;;;;;;;8.75;1.92;;;;;;;;;;4973947;28;20571;-69
2022/09/19 10:40:30;;;;;;;6.18;1.13;;;;;;;;;;4972356;28;20258;-69
2022/09/19 10:42:56;;;;;;;4.15;1.23;;;;;;;;;;4973115;28;20246;-69
2022/09/19 10:45:25;;;;;;;3.17;0.93;;;;;;;;;;4982573;28;20677;-69
2022/09/19 10:47:51;;;;;;;5.07;0.80;;;;;;;;;;4974747;28;20262;-69
2022/09/19 10:50:17;;;;;;;3.10;0.93;;;;;;;;;;4981618;28;20184;-69
2022/09/19 10:52:44;;;;;;;3.38;0.50;;;;;;;;;;4982805;28;20234;-69
2022/09/19 10:55:22;;;;;;;3.22;0.65;;;;;;;;;;4957444;28;20176;-69
2022/09/19 10:57:59;;;;;;;4.75;0.98;;;;;;;;;;4969111;28;20200;-69
2022/09/19 11:00:24;;;;;;;4.57;0.90;;;;;;;;;;4946837;28;20185;-69
2022/09/19 11:02:59;;;;;;;3.97;0.88;;;;;;;;;;4984433;28;20663;-69
2022/09/19 11:05:26;;;;;;;2.78;0.82;;;;;;;;;;4980062;28;20690;-69
2022/09/19 11:07:55;;;;;;;6.75;0.90;;;;;;;;;;4984410;28;20250;-69
2022/09/19 11:10:37;;;;;;;4.38;0.75;;;;;;;;;;4974101;28;20267;-69
2022/09/19 11:13:13;;;;;;;4.32;1.55;;;;;;;;;;4979912;28;20277;-69
2022/09/19 11:15:51;;;;;;;7.00;1.40;;;;;;;;;;4980750;28;20571;-69
2022/09/19 11:18:37;;;;;;;5.78;1.70;;;;;;;;;;4974230;28;20678;-69
2022/09/19 11:21:07;;;;;;;4.47;0.85;;;;;;;;;;4963378;28;20668;-69
2022/09/19 11:23:35;;;;;;;4.53;0.80;;;;;;;;;;4977623;28;20277;-69
2022/09/19 11:26:04;;;;;;;4.05;0.90;;;;;;;;;;4977697;28;20693;-69
2022/09/19 11:28:43;;;;;;;3.15;1.42;;;;;;;;;;4977333;28;20219;-70
2022/09/19 11:31:20;;;;;;;3.85;1.02;;;;;;;;;;4983010;28;20659;-69
2022/09/19 11:33:58;;;;;;;4.30;0.80;;;;;;;;;;4972563;28;20172;-69
2022/09/19 11:36:28;;;;;;;4.18;0.82;;;;;;;;;;4973022;28;20195;-69
2022/09/19 11:39:16;;;;;;;4.70;1.20;;;;;;;;;;4976794;28;20671;-69
2022/09/19 11:41:57;;;;;;;3.58;0.65;;;;;;;;;;4976324;28;20680;-69
2022/09/19 11:44:25;;;;;;;3.28;0.60;;;;;;;;;;4976652;28;20200;-69
2022/09/19 11:47:19;;;;;;;3.28;0.80;;;;;;;;;;4973712;28;20203;-69
2022/09/19 11:49:51;;;;;;;4.32;0.98;;;;;;;;;;4973142;28;20165;-69
2022/09/19 11:52:34;;;;;;;2.58;0.85;;;;;;;;;;4972642;28;20569;-69
2022/09/19 11:55:12;;;;;;;5.18;1.00;;;;;;;;;;4974768;28;20215;-69
2022/09/19 11:58:07;;;;;;;6.35;0.75;;;;;;;;;;4973746;28;20295;-69
2022/09/19 12:00:39;;;;;;;5.80;1.00;;;;;;;;;;4964889;28;20657;-69
2022/09/19 12:03:19;;;;;;;3.30;0.77;;;;;;;;;;4953369;28;20684;-69
2022/09/19 12:05:57;;;;;;;2.10;0.60;;;;;;;;;;4969449;28;20239;-69
2022/09/19 12:08:24;;;;;;;2.78;1.20;;;;;;;;;;4977673;28;20195;-69
2022/09/19 12:10:55;;;;;;;4.40;0.80;;;;;;;;;;4976310;28;20255;-69
2022/09/19 12:13:22;;;;;;;3.53;0.93;;;;;;;;;;4972225;28;20180;-68
2022/09/19 12:16:06;;;;;;;2.70;0.82;;;;;;;;;;4972887;28;20251;-69
2022/09/19 12:18:52;;;;;;;3.58;0.60;;;;;;;;;;4972303;28;20652;-69
2022/09/19 12:21:22;;;;;;;2.50;0.75;;;;;;;;;;4970072;28;20184;-69
2022/09/19 12:26:54;;;;;;;2.38;0.75;;;;;;;;;;4988319;28;20234;-69
2022/09/19 12:29:34;;;;;;;1.70;0.70;;;;;;;;;;4969710;28;20180;-69
2022/09/19 12:32:04;;;;;;;3.15;0.68;;;;;;;;;;4972044;28;20596;-70
2022/09/19 12:34:35;;;;;;;3.30;0.73;;;;;;;;;;4972708;28;20187;-69
2022/09/19 12:37:03;;;;;;;2.28;0.70;;;;;;;;;;4968422;28;20206;-69
2022/09/19 12:39:41;;;;;;;2.05;0.70;;;;;;;;;;4974147;28;20186;-69
2022/09/19 12:42:14;;;;;;;2.63;0.50;;;;;;;;;;4971448;28;20207;-69
2022/09/19 12:44:40;;;;;;;2.40;0.70;;;;;;;;;;4972024;28;20207;-69
2022/09/19 12:47:14;;;;;;;2.90;0.65;;;;;;;;;;4972083;28;20193;-69
2022/09/19 12:50:00;;;;;;;4.20;1.75;;;;;;;;;;4971047;28;20924;-69
2022/09/19 12:52:28;;;;;;;2.90;0.73;;;;;;;;;;4982733;28;20179;-69
2022/09/19 12:55:13;;;;;;;1.67;0.80;;;;;;;;;;4954826;28;20183;-69
2022/09/19 12:57:44;;;;;;;5.97;0.93;;;;;;;;;;4971862;28;20196;-69
2022/09/19 13:00:13;;;;;;;2.70;0.70;;;;;;;;;;4965694;28;20193;-69
2022/09/19 13:02:43;;;;;;;1.58;0.47;;;;;;;;;;4968419;28;20615;-69
2022/09/19 13:05:27;;;;;;;4.72;0.60;;;;;;;;;;4971639;28;20200;-69
2022/09/19 13:07:54;;;;;;;1.92;0.50;;;;;;;;;;4968778;28;20572;-69
2022/09/19 13:10:25;;;;;;;2.15;0.82;;;;;;;;;;4971706;28;20172;-69
2022/09/19 13:13:11;;;;;;;5.57;0.73;;;;;;;;;;4971415;28;20176;-69
2022/09/19 13:15:40;;;;;;;1.33;0.50;;;;;;;;;;4962806;28;20275;-69
2022/09/19 13:23:38;;;;;;;1.95;0.55;;;;;;;;;;4972056;28;20605;-69
2022/09/19 13:26:24;;;;;;;2.22;0.47;;;;;;;;;;4971839;28;20207;-69
2022/09/19 13:28:53;;;;;;;3.67;0.57;;;;;;;;;;4972275;28;20183;-68
2022/09/19 13:31:22;;;;;;;0.68;0.30;;;;;;;;;;4983733;28;20574;-69
2022/09/19 13:33:52;;;;;;;1.30;0.52;;;;;;;;;;4972999;28;20204;-69
2022/09/19 13:36:17;;;;;;;3.90;1.33;;;;;;;;;;4949048;28;20563;-69
2022/09/19 13:38:43;;;;;;;4.47;0.80;;;;;;;;;;4971616;28;20256;-69
2022/09/19 13:41:17;;;;;;;3.33;1.73;;;;;;;;;;4972253;28;20180;-69
2022/09/19 13:44:03;;;;;;;2.63;0.70;;;;;;;;;;4982984;28;20175;-69
2022/09/19 13:46:28;;;;;;;2.65;0.70;;;;;;;;;;4981986;28;20176;-69
2022/09/19 13:48:58;;;;;;;5.10;0.73;;;;;;;;;;4974945;28;20219;-69
2022/09/19 13:51:31;;;;;;;1.73;0.60;;;;;;;;;;4974812;28;20418;-69
2022/09/19 13:54:18;;;;;;;4.13;2.60;;;;;;;;;;4974964;28;20258;-69
2022/09/19 13:56:45;;;;;;;5.15;0.90;;;;;;;;;;4947599;28;20215;-69
2022/09/19 13:59:23;;;;;;;5.50;1.48;;;;;;;;;;4963204;28;20181;-69
2022/09/19 14:01:59;;;;;;;3.55;1.00;;;;;;;;;;4970016;28;20587;-69
2022/09/19 14:04:56;;;;;;;2.20;0.60;;;;;;;;;;4973100;28;20234;-69
2022/09/19 14:07:25;;;;;;;2.05;0.68;;;;;;;;;;4974292;28;20188;-69
2022/09/19 14:09:52;;;;;;;3.17;0.65;;;;;;;;;;4974383;28;20202;-69
2022/09/19 14:12:47;;;;;;;2.60;0.70;;;;;;;;;;4973374;28;20169;-69
2022/09/19 14:15:22;;;;;;;1.48;0.40;;;;;;;;;;4970673;28;20192;-69
2022/09/19 14:18:02;;;;;;;3.40;1.13;;;;;;;;;;4974957;28;20215;-69
2022/09/19 14:21:03;;;;;;;2.08;0.80;;;;;;;;;;4974924;28;20650;-69
2022/09/19 14:23:32;;;;;;;1.83;0.60;;;;;;;;;;4920519;29;20202;-68
2022/09/19 14:26:01;;;;;;;1.73;0.75;;;;;;;;;;4963249;28;20705;-69
2022/09/19 14:28:43;;;;;;;1.00;0.43;;;;;;;;;;4980934;28;20207;-69
2022/09/19 14:31:12;;;;;;;2.45;0.63;;;;;;;;;;4978955;28;20188;-69
2022/09/19 14:33:43;;;;;;;3.95;0.70;;;;;;;;;;4974359;28;20712;-68
2022/09/19 14:36:21;;;;;;;1.48;0.50;;;;;;;;;;4970409;28;20185;-69
2022/09/19 14:39:05;;;;;;;2.25;0.70;;;;;;;;;;4968072;28;20270;-69
2022/09/19 14:41:41;;;;;;;2.70;0.60;;;;;;;;;;4981300;28;20184;-69
2022/09/19 14:44:12;;;;;;;3.22;0.52;;;;;;;;;;4974451;28;20186;-69
2022/09/19 14:46:37;;;;;;;3.53;0.55;;;;;;;;;;4973923;28;20207;-69
2022/09/19 14:49:02;;;;;;;5.22;0.88;;;;;;;;;;4974235;28;20180;-69
2022/09/19 14:51:31;;;;;;;10.00;3.45;;;;;;;;;;4961523;28;20181;-69
2022/09/19 14:54:05;;;;;;;5.13;0.85;;;;;;;;;;4991774;28;20321;-69
2022/09/19 14:56:30;;;;;;;3.33;0.88;;;;;;;;;;4974071;28;20176;-69
2022/09/19 14:58:56;;;;;;;3.17;0.60;;;;;;;;;;4974006;28;20698;-69
2022/09/19 15:01:27;;;;;;;4.82;0.68;;;;;;;;;;4975764;28;20176;-69
2022/09/19 15:03:52;;;;;;;3.90;0.80;;;;;;;;;;4966662;28;20169;-69
2022/09/19 15:06:25;;;;;;;1.77;0.65;;;;;;;;;;4975213;28;20219;-69
2022/09/19 15:08:50;;;;;;;3.03;0.77;;;;;;;;;;4977306;28;20430;-70
2022/09/19 15:11:18;;;;;;;1.30;0.63;;;;;;;;;;4973357;28;20642;-69
2022/09/19 15:13:47;;;;;;;4.10;1.05;;;;;;;;;;4973104;28;20169;-69
2022/09/19 15:16:13;;;;;;;2.22;0.63;;;;;;;;;;4973978;28;20199;-69
2022/09/19 15:18:42;;;;;;;4.05;1.02;;;;;;;;;;4973463;22;20224;-70
2022/09/19 15:21:10;;;;;;;6.57;1.00;;;;;;;;;;4952331;28;20185;-69
2022/09/19 15:23:37;;;;;;;5.15;1.38;;;;;;;;;;4954539;28;20185;-70
2022/09/19 15:26:03;;;;;;;3.65;1.50;;;;;;;;;;4954726;28;20268;-70
2022/09/19 15:28:35;;;;;;;7.50;1.20;;;;;;;;;;4961975;28;20209;-73
2022/09/19 15:31:00;;;;;;;2.60;1.00;;;;;;;;;;4964174;28;20662;-69